Time;durP1;ratioP1;P1;durP2;ratioP2;P2;SDS_P1;SDS_P2;PMS_P1;PMS_P2;Temp;Humidity;BMP_temperature;BMP_pressure;BME280_temperature;BME280_humidity;BME280_pressure;Samples;Min_cycle;Max_cycle;Signal;HPM_P1;HPM_P2
2022/09/06 00:00:28;;;;;;;15.72;13.45;;;;;;;;;;1838883;76;21594;-84
2022/09/06 00:02:58;;;;;;;16.05;12.63;;;;;;;;;;1835125;77;21238;-83
2022/09/06 00:05:29;;;;;;;20.10;15.28;;;;;;;;;;1831745;76;21154;-85
2022/09/06 00:08:00;;;;;;;16.87;13.68;;;;;;;;;;1787829;78;21149;-84
2022/09/06 00:10:31;;;;;;;23.45;19.67;;;;;;;;;;1756681;80;21180;-85
2022/09/06 00:13:03;;;;;;;43.70;35.23;;;;;;;;;;1805640;79;21236;-84
2022/09/06 00:15:34;;;;;;;28.60;21.00;;;;;;;;;;1754670;80;21169;-85
2022/09/06 00:18:06;;;;;;;17.00;13.80;;;;;;;;;;1785272;78;21191;-85
2022/09/06 00:20:40;;;;;;;17.77;12.53;;;;;;;;;;1810630;77;21084;-85
2022/09/06 00:23:09;;;;;;;13.98;12.53;;;;;;;;;;1762531;80;21266;-84
2022/09/06 00:25:40;;;;;;;17.98;13.08;;;;;;;;;;1766848;80;21110;-85
2022/09/06 00:28:11;;;;;;;15.75;11.53;;;;;;;;;;1853508;75;21115;-84
2022/09/06 00:30:41;;;;;;;15.78;11.78;;;;;;;;;;1861534;75;21142;-84
2022/09/06 00:33:11;;;;;;;23.77;15.85;;;;;;;;;;1846281;76;21231;-85
2022/09/06 00:35:43;;;;;;;16.55;13.22;;;;;;;;;;1847430;77;21083;-84
2022/09/06 00:38:13;;;;;;;15.18;11.60;;;;;;;;;;1865206;75;21142;-84
2022/09/06 00:40:43;;;;;;;16.07;11.05;;;;;;;;;;1852273;75;21181;-84
2022/09/06 00:43:14;;;;;;;13.40;10.63;;;;;;;;;;1861423;74;21087;-86
2022/09/06 00:45:44;;;;;;;11.80;10.53;;;;;;;;;;1842721;75;21067;-83
2022/09/06 00:48:15;;;;;;;16.75;11.00;;;;;;;;;;1866544;75;21091;-86
2022/09/06 00:50:46;;;;;;;11.00;9.88;;;;;;;;;;1863975;75;21177;-86
2022/09/06 00:53:16;;;;;;;13.58;10.70;;;;;;;;;;1845281;77;21149;-86
2022/09/06 00:55:47;;;;;;;13.25;11.65;;;;;;;;;;1855769;77;21114;-86
2022/09/06 00:58:18;;;;;;;12.58;10.58;;;;;;;;;;1857744;75;21100;-85
2022/09/06 01:00:51;;;;;;;13.53;11.95;;;;;;;;;;1855125;75;21118;-86
2022/09/06 01:03:23;;;;;;;13.98;11.45;;;;;;;;;;1840298;75;21126;-86
2022/09/06 01:05:54;;;;;;;14.83;11.33;;;;;;;;;;1848879;77;21720;-85
2022/09/06 01:08:24;;;;;;;12.82;10.40;;;;;;;;;;1853140;76;21122;-85
2022/09/06 01:10:55;;;;;;;12.68;9.85;;;;;;;;;;1851353;75;21080;-86
2022/09/06 01:13:25;;;;;;;12.40;10.30;;;;;;;;;;1858940;77;21252;-86
2022/09/06 01:15:56;;;;;;;13.90;11.08;;;;;;;;;;1854616;76;21166;-85
2022/09/06 01:18:26;;;;;;;15.35;10.68;;;;;;;;;;1808007;77;21656;-85
2022/09/06 01:20:58;;;;;;;15.70;11.78;;;;;;;;;;1806539;78;21220;-85
2022/09/06 01:23:29;;;;;;;13.70;11.10;;;;;;;;;;1803944;78;21271;-86
2022/09/06 01:26:01;;;;;;;11.05;9.95;;;;;;;;;;1796409;78;21131;-86
2022/09/06 01:28:31;;;;;;;12.50;9.18;;;;;;;;;;1782334;79;21121;-86
2022/09/06 01:31:02;;;;;;;9.73;7.72;;;;;;;;;;1809275;78;21120;-87
2022/09/06 01:33:34;;;;;;;10.82;7.65;;;;;;;;;;1797609;79;21213;-86
2022/09/06 01:36:05;;;;;;;9.75;8.30;;;;;;;;;;1820662;77;21113;-86
2022/09/06 01:38:36;;;;;;;10.13;7.50;;;;;;;;;;1807706;78;21273;-86
2022/09/06 01:41:07;;;;;;;9.08;7.00;;;;;;;;;;1770816;81;21403;-86
2022/09/06 01:43:39;;;;;;;8.08;7.28;;;;;;;;;;1786661;78;21200;-86
2022/09/06 01:46:11;;;;;;;10.08;8.30;;;;;;;;;;1815230;77;21223;-85
2022/09/06 01:48:43;;;;;;;10.23;7.60;;;;;;;;;;1807119;78;21148;-87
2022/09/06 01:51:15;;;;;;;8.15;7.10;;;;;;;;;;1806795;78;21264;-74
2022/09/06 01:53:46;;;;;;;8.65;7.45;;;;;;;;;;1823553;77;21515;-75
2022/09/06 01:56:18;;;;;;;10.85;8.00;;;;;;;;;;1820254;76;21094;-74
2022/09/06 01:58:49;;;;;;;9.33;7.67;;;;;;;;;;1788133;78;21204;-72
2022/09/06 02:01:20;;;;;;;9.15;7.40;;;;;;;;;;1831887;77;21168;-75
2022/09/06 02:03:52;;;;;;;8.38;7.50;;;;;;;;;;1820300;76;22200;-72
2022/09/06 02:06:23;;;;;;;8.35;7.55;;;;;;;;;;1785193;78;21197;-72
2022/09/06 02:08:55;;;;;;;15.53;9.08;;;;;;;;;;1815645;77;21192;-72
2022/09/06 02:11:26;;;;;;;9.25;8.35;;;;;;;;;;1806630;78;21141;-72
2022/09/06 02:13:58;;;;;;;9.98;8.58;;;;;;;;;;1800635;79;21101;-71
2022/09/06 02:16:30;;;;;;;11.93;8.20;;;;;;;;;;1800438;79;21187;-71
2022/09/06 02:19:02;;;;;;;10.15;8.30;;;;;;;;;;1781858;78;21698;-74
2022/09/06 02:21:33;;;;;;;9.48;8.10;;;;;;;;;;1771149;80;21163;-73
2022/09/06 02:24:06;;;;;;;10.78;9.38;;;;;;;;;;1760011;80;21555;-73
2022/09/06 02:26:37;;;;;;;17.30;9.55;;;;;;;;;;1783399;78;21152;-75
2022/09/06 02:29:08;;;;;;;10.98;9.55;;;;;;;;;;1785737;78;21195;-74
2022/09/06 02:31:39;;;;;;;14.28;9.78;;;;;;;;;;1769877;79;21149;-75
2022/09/06 02:34:10;;;;;;;10.10;8.40;;;;;;;;;;1742366;80;21227;-75
2022/09/06 02:36:41;;;;;;;9.78;8.78;;;;;;;;;;1773970;79;21125;-75
2022/09/06 02:39:11;;;;;;;10.45;9.05;;;;;;;;;;1772644;79;21175;-75
2022/09/06 02:41:43;;;;;;;11.80;9.53;;;;;;;;;;1786985;79;21119;-74
2022/09/06 02:44:14;;;;;;;11.97;8.98;;;;;;;;;;1781159;79;21261;-75
2022/09/06 02:46:44;;;;;;;10.30;8.90;;;;;;;;;;1787786;79;21162;-75
2022/09/06 02:49:14;;;;;;;11.68;9.65;;;;;;;;;;1784359;79;21144;-75
2022/09/06 02:51:44;;;;;;;10.35;9.25;;;;;;;;;;1780426;80;21203;-75
2022/09/06 02:54:14;;;;;;;10.40;9.25;;;;;;;;;;1773391;80;21179;-76
2022/09/06 02:56:44;;;;;;;10.25;9.20;;;;;;;;;;1762609;80;21216;-73
2022/09/06 02:59:16;;;;;;;11.63;9.15;;;;;;;;;;1788502;79;21166;-74
2022/09/06 03:01:46;;;;;;;11.30;9.65;;;;;;;;;;1784352;78;21155;-74
2022/09/06 03:04:17;;;;;;;12.70;10.05;;;;;;;;;;1751527;81;21214;-72
2022/09/06 03:06:47;;;;;;;11.97;10.30;;;;;;;;;;1754989;79;21204;-74
2022/09/06 03:09:18;;;;;;;10.82;9.28;;;;;;;;;;1801692;79;21160;-73
2022/09/06 03:11:48;;;;;;;10.72;9.53;;;;;;;;;;1755259;80;21235;-73
2022/09/06 03:14:18;;;;;;;13.20;9.85;;;;;;;;;;1775706;78;21247;-73
2022/09/06 03:16:49;;;;;;;10.23;8.88;;;;;;;;;;1741397;81;21237;-74
2022/09/06 03:19:20;;;;;;;13.10;10.28;;;;;;;;;;1765981;80;21213;-73
2022/09/06 03:21:50;;;;;;;12.28;10.28;;;;;;;;;;1837640;77;21244;-73
2022/09/06 03:24:21;;;;;;;12.13;9.45;;;;;;;;;;1844957;75;21213;-72
2022/09/06 03:26:51;;;;;;;11.00;9.80;;;;;;;;;;1843277;76;21820;-72
2022/09/06 03:29:22;;;;;;;11.78;9.78;;;;;;;;;;1848137;75;21244;-73
2022/09/06 03:31:52;;;;;;;12.58;9.48;;;;;;;;;;1859111;75;21169;-72
2022/09/06 03:34:23;;;;;;;10.38;9.20;;;;;;;;;;1846581;75;21196;-73
2022/09/06 03:36:53;;;;;;;9.55;8.55;;;;;;;;;;1848177;75;21267;-72
2022/09/06 03:39:23;;;;;;;11.43;9.63;;;;;;;;;;1853688;76;21139;-72
2022/09/06 03:41:54;;;;;;;11.38;10.05;;;;;;;;;;1851387;75;21110;-73
2022/09/06 03:44:24;;;;;;;10.72;9.60;;;;;;;;;;1845916;76;21142;-72
2022/09/06 03:46:54;;;;;;;10.75;9.40;;;;;;;;;;1851383;75;21218;-72
2022/09/06 03:49:24;;;;;;;11.25;10.15;;;;;;;;;;1803784;78;21279;-72
2022/09/06 03:51:54;;;;;;;10.75;9.68;;;;;;;;;;1852588;75;21235;-72
2022/09/06 03:54:27;;;;;;;10.43;9.43;;;;;;;;;;1845629;77;21279;-72
2022/09/06 03:56:57;;;;;;;10.68;9.58;;;;;;;;;;1848898;74;21091;-73
2022/09/06 03:59:27;;;;;;;10.63;9.50;;;;;;;;;;1847086;76;21177;-72
2022/09/06 04:01:57;;;;;;;10.08;9.08;;;;;;;;;;1851056;76;21208;-73
2022/09/06 04:04:27;;;;;;;11.40;10.30;;;;;;;;;;1855058;75;21210;-72
2022/09/06 04:06:58;;;;;;;11.83;9.85;;;;;;;;;;1847520;77;21196;-72
2022/09/06 04:09:28;;;;;;;10.85;9.30;;;;;;;;;;1839892;76;21134;-72
2022/09/06 04:11:59;;;;;;;11.55;10.35;;;;;;;;;;1855314;77;21161;-72
2022/09/06 04:14:29;;;;;;;12.15;10.00;;;;;;;;;;1843817;75;21141;-72
2022/09/06 04:16:59;;;;;;;14.40;11.00;;;;;;;;;;1808461;77;21138;-74
2022/09/06 04:19:30;;;;;;;11.78;10.58;;;;;;;;;;1845584;75;21142;-73
2022/09/06 04:22:00;;;;;;;10.75;9.53;;;;;;;;;;1830681;77;21151;-73
2022/09/06 04:24:30;;;;;;;10.30;9.28;;;;;;;;;;1774062;79;21083;-74
2022/09/06 04:27:01;;;;;;;10.25;9.25;;;;;;;;;;1727856;82;21274;-73
2022/09/06 04:29:32;;;;;;;11.70;10.30;;;;;;;;;;1773890;80;21232;-74
2022/09/06 04:32:22;;;;;;;9.30;8.33;;;;;;;;;;1766774;80;21260;-73
2022/09/06 04:34:52;;;;;;;11.28;8.05;;;;;;;;;;1897033;75;21072;-74
2022/09/06 04:37:23;;;;;;;9.55;7.92;;;;;;;;;;1918251;74;21107;-73
2022/09/06 04:39:53;;;;;;;8.30;7.50;;;;;;;;;;1903279;74;21129;-73
2022/09/06 04:42:24;;;;;;;10.30;8.85;;;;;;;;;;1879737;75;21167;-73
2022/09/06 04:44:54;;;;;;;9.83;8.88;;;;;;;;;;1898646;75;21142;-73
2022/09/06 04:47:24;;;;;;;10.03;9.03;;;;;;;;;;1897755;74;21116;-74
2022/09/06 04:49:55;;;;;;;9.10;8.20;;;;;;;;;;1895175;75;21084;-74
2022/09/06 04:52:25;;;;;;;9.30;8.20;;;;;;;;;;1897887;74;21144;-72
2022/09/06 04:54:56;;;;;;;9.35;8.08;;;;;;;;;;1899236;75;21132;-73
2022/09/06 04:57:26;;;;;;;8.53;7.22;;;;;;;;;;1904523;74;21198;-74
2022/09/06 04:59:57;;;;;;;10.35;7.62;;;;;;;;;;1894456;74;21166;-73
2022/09/06 05:02:27;;;;;;;10.55;7.12;;;;;;;;;;1908822;74;21128;-74
2022/09/06 05:04:57;;;;;;;7.08;6.37;;;;;;;;;;1895122;74;21082;-74
2022/09/06 05:07:27;;;;;;;7.25;6.53;;;;;;;;;;1895626;74;21090;-73
2022/09/06 05:09:58;;;;;;;8.60;6.40;;;;;;;;;;1901669;75;21237;-73
2022/09/06 05:12:28;;;;;;;7.12;6.42;;;;;;;;;;1900645;74;21446;-73
2022/09/06 05:14:59;;;;;;;6.37;5.62;;;;;;;;;;1881032;74;21559;-73
2022/09/06 05:17:30;;;;;;;8.15;6.35;;;;;;;;;;1898908;75;21505;-74
2022/09/06 05:20:07;;;;;;;6.60;5.45;;;;;;;;;;1897996;74;21169;-72
2022/09/06 05:22:37;;;;;;;6.10;5.30;;;;;;;;;;1904413;74;21109;-74
2022/09/06 05:25:08;;;;;;;6.47;5.65;;;;;;;;;;1900846;75;21126;-74
2022/09/06 05:27:39;;;;;;;7.33;6.05;;;;;;;;;;1902965;75;21681;-73
2022/09/06 05:30:10;;;;;;;8.38;6.10;;;;;;;;;;1893513;74;21136;-74
2022/09/06 05:32:41;;;;;;;8.25;5.80;;;;;;;;;;1892184;75;21084;-73
2022/09/06 05:35:11;;;;;;;6.37;5.45;;;;;;;;;;1916276;73;21534;-73
2022/09/06 05:37:42;;;;;;;7.47;5.83;;;;;;;;;;1907295;73;21117;-74
2022/09/06 05:40:12;;;;;;;7.67;5.30;;;;;;;;;;1910053;73;21161;-73
2022/09/06 05:42:42;;;;;;;6.42;5.45;;;;;;;;;;1908125;73;21187;-73
2022/09/06 05:45:12;;;;;;;5.55;5.05;;;;;;;;;;1912476;73;21637;-73
2022/09/06 05:47:43;;;;;;;6.17;5.08;;;;;;;;;;1910716;73;21263;-73
2022/09/06 05:50:13;;;;;;;5.95;5.12;;;;;;;;;;1913648;74;21162;-74
2022/09/06 05:52:43;;;;;;;8.40;5.78;;;;;;;;;;1903303;74;21631;-75
2022/09/06 05:55:14;;;;;;;6.40;5.70;;;;;;;;;;1897519;74;21089;-75
2022/09/06 05:57:44;;;;;;;6.58;5.37;;;;;;;;;;1901361;74;21082;-75
2022/09/06 06:00:15;;;;;;;7.03;6.28;;;;;;;;;;1913638;74;21171;-73
2022/09/06 06:02:47;;;;;;;5.92;5.33;;;;;;;;;;1927764;73;21599;-73
2022/09/06 06:05:17;;;;;;;9.40;5.85;;;;;;;;;;1863117;76;21251;-73
2022/09/06 06:07:48;;;;;;;7.40;5.20;;;;;;;;;;1924007;73;21159;-73
2022/09/06 06:10:18;;;;;;;6.17;5.33;;;;;;;;;;1920810;74;21225;-73
2022/09/06 06:12:48;;;;;;;8.35;5.62;;;;;;;;;;1924386;73;21154;-72
2022/09/06 06:15:19;;;;;;;5.83;5.10;;;;;;;;;;1897560;73;21119;-72
2022/09/06 06:17:49;;;;;;;5.87;5.22;;;;;;;;;;1917219;73;21592;-72
2022/09/06 06:20:19;;;;;;;5.90;5.22;;;;;;;;;;1922150;73;21178;-72
2022/09/06 06:22:50;;;;;;;5.70;5.10;;;;;;;;;;1920362;73;21135;-73
2022/09/06 06:25:24;;;;;;;6.30;4.95;;;;;;;;;;1891883;74;21115;-72
2022/09/06 06:27:52;;;;;;;12.58;6.12;;;;;;;;;;1904651;74;21213;-72
2022/09/06 06:30:22;;;;;;;9.33;6.08;;;;;;;;;;1889153;76;21072;-73
2022/09/06 06:32:53;;;;;;;5.92;5.33;;;;;;;;;;1889493;74;21076;-72
2022/09/06 06:35:24;;;;;;;6.42;5.53;;;;;;;;;;1863691;74;21173;-72
2022/09/06 06:37:55;;;;;;;7.55;5.58;;;;;;;;;;1914132;74;21100;-73
2022/09/06 06:40:26;;;;;;;6.22;5.20;;;;;;;;;;1900632;73;21215;-72
2022/09/06 06:42:57;;;;;;;6.72;5.33;;;;;;;;;;1924214;73;21170;-71
2022/09/06 06:45:28;;;;;;;6.37;5.62;;;;;;;;;;1902323;75;21126;-73
2022/09/06 06:47:58;;;;;;;6.92;5.35;;;;;;;;;;1892196;74;21157;-73
2022/09/06 06:50:28;;;;;;;6.70;5.40;;;;;;;;;;1895356;74;21109;-72
2022/09/06 06:52:59;;;;;;;8.38;5.85;;;;;;;;;;1928986;73;21083;-74
2022/09/06 06:55:29;;;;;;;6.97;5.53;;;;;;;;;;1901116;74;21791;-73
2022/09/06 06:58:00;;;;;;;6.65;5.83;;;;;;;;;;1903299;74;21643;-73
2022/09/06 07:00:30;;;;;;;6.58;5.47;;;;;;;;;;1887500;74;21102;-73
2022/09/06 07:03:01;;;;;;;8.05;5.70;;;;;;;;;;1910463;73;21080;-72
2022/09/06 07:05:31;;;;;;;10.13;6.42;;;;;;;;;;1888561;74;21232;-73
2022/09/06 07:08:03;;;;;;;6.95;6.17;;;;;;;;;;1885983;75;21254;-72
2022/09/06 07:10:34;;;;;;;7.40;5.85;;;;;;;;;;1888420;75;21205;-73
2022/09/06 07:13:04;;;;;;;6.22;5.60;;;;;;;;;;1893152;74;21167;-73
2022/09/06 07:15:34;;;;;;;7.78;5.90;;;;;;;;;;1875658;75;21080;-73
2022/09/06 07:18:05;;;;;;;7.62;6.08;;;;;;;;;;1916826;73;21138;-74
2022/09/06 07:20:35;;;;;;;7.58;6.25;;;;;;;;;;1895455;74;21108;-73
2022/09/06 07:23:07;;;;;;;7.28;6.10;;;;;;;;;;1909622;73;21059;-70
2022/09/06 07:25:39;;;;;;;7.70;6.08;;;;;;;;;;1903691;73;21173;-72
2022/09/06 07:28:09;;;;;;;8.08;6.67;;;;;;;;;;1910012;74;21620;-72
2022/09/06 07:30:39;;;;;;;7.85;7.03;;;;;;;;;;1937476;73;21257;-73
2022/09/06 07:33:10;;;;;;;8.13;6.95;;;;;;;;;;1918021;73;21616;-73
2022/09/06 07:35:41;;;;;;;10.18;7.45;;;;;;;;;;1898269;74;21119;-72
2022/09/06 07:38:12;;;;;;;12.78;6.85;;;;;;;;;;1935462;73;21118;-72
2022/09/06 07:40:42;;;;;;;7.97;6.60;;;;;;;;;;1918738;73;21235;-72
2022/09/06 07:43:12;;;;;;;8.70;6.67;;;;;;;;;;1943055;73;21093;-72
2022/09/06 07:45:43;;;;;;;10.08;6.20;;;;;;;;;;1945367;73;21154;-73
2022/09/06 07:48:13;;;;;;;8.80;6.37;;;;;;;;;;1906492;74;21222;-74
2022/09/06 07:50:45;;;;;;;7.10;6.40;;;;;;;;;;1914594;73;21234;-74
2022/09/06 07:53:16;;;;;;;8.90;6.22;;;;;;;;;;1899784;74;21180;-74
2022/09/06 07:55:48;;;;;;;9.70;7.05;;;;;;;;;;1956471;73;21153;-73
2022/09/06 07:58:28;;;;;;;7.83;6.72;;;;;;;;;;1920712;74;21242;-73
2022/09/06 08:00:59;;;;;;;7.72;6.08;;;;;;;;;;1908465;74;21151;-73
2022/09/06 08:03:31;;;;;;;7.85;6.35;;;;;;;;;;1905764;74;21134;-73
2022/09/06 08:06:02;;;;;;;6.97;6.28;;;;;;;;;;1950818;73;21174;-72
2022/09/06 08:08:34;;;;;;;7.25;6.55;;;;;;;;;;1926414;73;21163;-73
2022/09/06 08:11:06;;;;;;;7.10;6.40;;;;;;;;;;1909056;74;21159;-74
2022/09/06 08:13:37;;;;;;;6.62;5.85;;;;;;;;;;1903544;74;21071;-74
2022/09/06 08:16:09;;;;;;;8.13;6.50;;;;;;;;;;1886997;75;21209;-73
2022/09/06 08:18:39;;;;;;;8.78;6.40;;;;;;;;;;1890811;75;21506;-73
2022/09/06 08:21:11;;;;;;;9.53;6.87;;;;;;;;;;1921271;74;21117;-74
2022/09/06 08:23:43;;;;;;;8.83;6.83;;;;;;;;;;1921102;73;21184;-72
2022/09/06 08:26:14;;;;;;;9.08;6.70;;;;;;;;;;1898786;75;21127;-73
2022/09/06 08:28:45;;;;;;;8.90;7.22;;;;;;;;;;1899861;75;21173;-73
2022/09/06 08:31:18;;;;;;;7.35;6.60;;;;;;;;;;1920704;74;21161;-73
2022/09/06 08:33:49;;;;;;;7.30;6.30;;;;;;;;;;1923502;74;21704;-73
2022/09/06 08:36:28;;;;;;;9.28;7.35;;;;;;;;;;1886343;75;21582;-73
2022/09/06 08:38:59;;;;;;;7.92;6.95;;;;;;;;;;1815028;78;21178;-73
2022/09/06 08:41:29;;;;;;;8.48;7.17;;;;;;;;;;1846980;77;21684;-73
2022/09/06 08:43:59;;;;;;;7.47;6.78;;;;;;;;;;1830921;77;21177;-73
2022/09/06 08:46:31;;;;;;;8.30;7.22;;;;;;;;;;1830768;77;21560;-73
2022/09/06 08:49:02;;;;;;;9.08;7.30;;;;;;;;;;1853047;77;21183;-73
2022/09/06 08:51:34;;;;;;;7.70;6.90;;;;;;;;;;1848049;77;21180;-73
2022/09/06 08:54:07;;;;;;;7.97;7.17;;;;;;;;;;1859587;77;21056;-73
2022/09/06 08:56:40;;;;;;;8.03;7.05;;;;;;;;;;1863078;75;21300;-73
2022/09/06 08:59:12;;;;;;;8.50;7.60;;;;;;;;;;1833637;77;21217;-74
2022/09/06 09:01:44;;;;;;;7.97;7.08;;;;;;;;;;1845579;75;21096;-74
2022/09/06 09:04:16;;;;;;;8.95;7.33;;;;;;;;;;1854501;75;21135;-74
2022/09/06 09:06:59;;;;;;;7.97;7.17;;;;;;;;;;1854244;75;21210;-73
2022/09/06 09:09:30;;;;;;;9.45;7.53;;;;;;;;;;1856673;76;21156;-74
2022/09/06 09:12:01;;;;;;;8.38;7.53;;;;;;;;;;1864847;76;21234;-74
2022/09/06 09:14:34;;;;;;;9.15;7.28;;;;;;;;;;1852505;77;21639;-74
2022/09/06 09:17:05;;;;;;;9.40;8.35;;;;;;;;;;1864958;76;21142;-74
2022/09/06 09:19:37;;;;;;;9.20;7.53;;;;;;;;;;1865452;76;21103;-74
2022/09/06 09:22:07;;;;;;;8.70;7.80;;;;;;;;;;1873515;76;21151;-73
2022/09/06 09:24:38;;;;;;;8.43;7.53;;;;;;;;;;1838490;77;21151;-74
2022/09/06 09:27:10;;;;;;;9.90;8.13;;;;;;;;;;1873795;76;21109;-74
2022/09/06 09:29:41;;;;;;;8.25;7.45;;;;;;;;;;1868319;76;21137;-74
2022/09/06 09:32:14;;;;;;;9.28;7.75;;;;;;;;;;1829677;77;21195;-73
2022/09/06 09:34:45;;;;;;;8.50;7.45;;;;;;;;;;1849452;77;21093;-73
2022/09/06 09:37:17;;;;;;;9.15;7.15;;;;;;;;;;1853611;75;21088;-75
2022/09/06 09:39:51;;;;;;;8.70;7.75;;;;;;;;;;1848710;75;21675;-75
2022/09/06 09:42:22;;;;;;;9.20;8.30;;;;;;;;;;1841123;77;21155;-73
2022/09/06 09:44:52;;;;;;;9.20;7.87;;;;;;;;;;1865577;76;21099;-74
2022/09/06 09:47:25;;;;;;;10.58;8.73;;;;;;;;;;1878037;76;21155;-74
2022/09/06 09:49:56;;;;;;;13.05;8.60;;;;;;;;;;1838498;77;21175;-74
2022/09/06 09:52:29;;;;;;;9.58;7.60;;;;;;;;;;1838485;77;21064;-74
2022/09/06 09:55:02;;;;;;;14.23;8.43;;;;;;;;;;1851505;75;21178;-74
2022/09/06 09:57:33;;;;;;;10.00;8.10;;;;;;;;;;1835975;77;21560;-74
2022/09/06 10:00:11;;;;;;;10.82;8.18;;;;;;;;;;1833164;77;21119;-73
2022/09/06 10:02:39;;;;;;;12.35;10.03;;;;;;;;;;1824047;77;21091;-73
2022/09/06 10:05:11;;;;;;;8.98;8.00;;;;;;;;;;1850394;75;21174;-74
2022/09/06 10:07:43;;;;;;;8.98;7.83;;;;;;;;;;1862806;75;21730;-74
2022/09/06 10:10:16;;;;;;;9.80;7.22;;;;;;;;;;1855394;77;21129;-75
2022/09/06 10:12:46;;;;;;;14.03;7.67;;;;;;;;;;1869540;76;21214;-73
2022/09/06 10:15:20;;;;;;;9.20;7.45;;;;;;;;;;1865122;76;21167;-76
2022/09/06 10:17:51;;;;;;;8.83;7.92;;;;;;;;;;1837195;77;21163;-74
2022/09/06 10:20:27;;;;;;;9.10;8.00;;;;;;;;;;1842885;75;21187;-75
2022/09/06 10:22:55;;;;;;;9.88;8.80;;;;;;;;;;1837388;75;21151;-74
2022/09/06 10:25:28;;;;;;;8.93;8.03;;;;;;;;;;1863891;75;21233;-73
2022/09/06 10:27:59;;;;;;;9.70;8.70;;;;;;;;;;1853999;75;21155;-74
2022/09/06 10:30:32;;;;;;;12.33;8.70;;;;;;;;;;1851402;75;21154;-74
2022/09/06 10:33:08;;;;;;;11.75;8.00;;;;;;;;;;1823510;77;21136;-75
2022/09/06 10:35:39;;;;;;;11.73;8.80;;;;;;;;;;1838114;76;21142;-76
2022/09/06 10:38:12;;;;;;;8.85;8.00;;;;;;;;;;1843407;76;21101;-75
2022/09/06 10:40:43;;;;;;;10.28;8.50;;;;;;;;;;1819240;77;21128;-74
2022/09/06 10:43:16;;;;;;;9.90;8.50;;;;;;;;;;1826943;77;21220;-73
2022/09/06 10:45:47;;;;;;;10.32;8.68;;;;;;;;;;1839378;77;21161;-74
2022/09/06 10:48:19;;;;;;;10.53;9.20;;;;;;;;;;1853061;77;21088;-75
2022/09/06 10:50:49;;;;;;;11.50;9.35;;;;;;;;;;1860193;76;21437;-74
2022/09/06 10:53:20;;;;;;;11.65;9.28;;;;;;;;;;1806063;77;21133;-74
2022/09/06 10:55:51;;;;;;;14.43;10.15;;;;;;;;;;1793128;78;21142;-74
2022/09/06 10:58:23;;;;;;;13.00;9.78;;;;;;;;;;1817540;77;21252;-74
2022/09/06 11:00:54;;;;;;;11.93;9.05;;;;;;;;;;1886450;76;21154;-74
2022/09/06 11:03:26;;;;;;;12.65;8.93;;;;;;;;;;1868567;76;21139;-73
2022/09/06 11:05:59;;;;;;;11.28;9.05;;;;;;;;;;1864773;76;21536;-74
2022/09/06 11:08:30;;;;;;;17.70;9.83;;;;;;;;;;1876585;76;21111;-74
2022/09/06 11:11:03;;;;;;;11.65;9.60;;;;;;;;;;1855823;76;21686;-74
2022/09/06 11:13:33;;;;;;;12.07;9.95;;;;;;;;;;1865192;76;21248;-74
2022/09/06 11:16:04;;;;;;;10.75;9.50;;;;;;;;;;1880345;74;21167;-75
2022/09/06 11:18:36;;;;;;;14.23;10.15;;;;;;;;;;1870357;75;21177;-74
2022/09/06 11:21:07;;;;;;;14.10;11.20;;;;;;;;;;1871547;76;21091;-75
2022/09/06 11:23:38;;;;;;;15.78;11.20;;;;;;;;;;1856487;76;21245;-74
2022/09/06 11:26:09;;;;;;;15.48;11.40;;;;;;;;;;1891389;74;21588;-74
2022/09/06 11:28:41;;;;;;;13.88;11.48;;;;;;;;;;1863708;76;21557;-73
2022/09/06 11:31:13;;;;;;;15.78;12.03;;;;;;;;;;1866847;76;21119;-74
2022/09/06 11:33:44;;;;;;;16.05;12.28;;;;;;;;;;1878734;75;21123;-74
2022/09/06 11:36:16;;;;;;;15.60;11.53;;;;;;;;;;1876119;75;21165;-73
2022/09/06 11:38:48;;;;;;;15.40;12.07;;;;;;;;;;1885343;74;21099;-73
2022/09/06 11:41:23;;;;;;;15.03;12.73;;;;;;;;;;1849460;76;21129;-73
2022/09/06 11:43:56;;;;;;;16.62;12.55;;;;;;;;;;1834752;76;21212;-74
2022/09/06 11:46:27;;;;;;;18.77;13.83;;;;;;;;;;1848551;76;21162;-73
2022/09/06 11:49:00;;;;;;;16.10;13.60;;;;;;;;;;1849703;77;21707;-74
2022/09/06 11:51:32;;;;;;;18.52;13.60;;;;;;;;;;1850146;77;21210;-73
2022/09/06 11:54:04;;;;;;;18.60;14.23;;;;;;;;;;1834014;78;21140;-74
2022/09/06 11:56:35;;;;;;;22.25;16.82;;;;;;;;;;1834204;77;21730;-74
2022/09/06 11:59:08;;;;;;;19.77;16.10;;;;;;;;;;1838181;77;21123;-74
2022/09/06 12:01:40;;;;;;;26.20;20.92;;;;;;;;;;1847352;77;21079;-74
2022/09/06 12:04:10;;;;;;;17.73;15.90;;;;;;;;;;1834988;77;21254;-73
2022/09/06 12:06:42;;;;;;;17.73;15.83;;;;;;;;;;1831022;77;21482;-73
2022/09/06 12:09:13;;;;;;;19.70;15.53;;;;;;;;;;1807772;79;22368;-75
2022/09/06 12:11:45;;;;;;;21.50;15.53;;;;;;;;;;1834214;78;21582;-73
2022/09/06 12:14:16;;;;;;;19.65;15.00;;;;;;;;;;1827944;77;22385;-73
2022/09/06 12:16:48;;;;;;;21.12;16.17;;;;;;;;;;1833734;77;21136;-73
2022/09/06 12:19:19;;;;;;;17.07;14.38;;;;;;;;;;1849746;77;21626;-73
2022/09/06 12:21:51;;;;;;;17.65;14.13;;;;;;;;;;1792454;78;21166;-86
2022/09/06 12:24:22;;;;;;;17.62;14.60;;;;;;;;;;1835978;77;21069;-86
2022/09/06 12:27:03;;;;;;;15.63;13.83;;;;;;;;;;1847619;76;21229;-87
2022/09/06 12:29:34;;;;;;;17.30;13.35;;;;;;;;;;1865181;76;21672;-86
2022/09/06 12:32:20;;;;;;;17.30;13.83;;;;;;;;;;1848909;77;21193;-86
2022/09/06 12:34:50;;;;;;;17.98;14.47;;;;;;;;;;1845125;77;21237;-86
2022/09/06 12:37:23;;;;;;;15.88;13.93;;;;;;;;;;1844620;77;21188;-86
2022/09/06 12:39:55;;;;;;;16.85;13.70;;;;;;;;;;1840981;77;21676;-86
2022/09/06 12:42:30;;;;;;;16.57;14.15;;;;;;;;;;1842791;77;21126;-86
2022/09/06 12:45:05;;;;;;;18.73;15.08;;;;;;;;;;1845035;77;21194;-86
2022/09/06 12:47:40;;;;;;;19.45;15.30;;;;;;;;;;1842791;77;21264;-86
2022/09/06 12:50:12;;;;;;;16.95;15.15;;;;;;;;;;1851319;77;21584;-86
2022/09/06 12:52:46;;;;;;;17.95;15.65;;;;;;;;;;1844991;77;21107;-87
2022/09/06 12:58:30;;;;;;;21.25;15.28;;;;;;;;;;1848691;75;21138;-86
2022/09/06 13:01:03;;;;;;;20.45;15.70;;;;;;;;;;1894999;74;21214;-86
2022/09/06 13:03:37;;;;;;;17.60;14.80;;;;;;;;;;1892693;74;21112;-86
2022/09/06 13:06:12;;;;;;;18.98;14.90;;;;;;;;;;1886466;74;21100;-85
2022/09/06 13:08:44;;;;;;;17.05;13.55;;;;;;;;;;1871547;75;21096;-86
2022/09/06 13:11:15;;;;;;;17.12;13.88;;;;;;;;;;1884958;75;21194;-86
2022/09/06 13:13:47;;;;;;;17.02;14.05;;;;;;;;;;1878828;74;21042;-87
2022/09/06 13:16:24;;;;;;;17.40;14.60;;;;;;;;;;1884253;75;21229;-85
2022/09/06 13:19:15;;;;;;;16.90;14.80;;;;;;;;;;1879186;75;21222;-86
2022/09/06 13:21:46;;;;;;;17.77;15.15;;;;;;;;;;1887202;75;21185;-85
2022/09/06 13:24:21;;;;;;;20.20;15.72;;;;;;;;;;1882096;74;21139;-86
2022/09/06 13:26:58;;;;;;;21.82;15.95;;;;;;;;;;1869626;75;21114;-86
2022/09/06 13:29:32;;;;;;;22.02;15.83;;;;;;;;;;1879735;75;21135;-86
2022/09/06 13:32:04;;;;;;;19.17;15.85;;;;;;;;;;1890293;74;21155;-85
2022/09/06 13:34:36;;;;;;;20.32;15.83;;;;;;;;;;1883326;74;21175;-85
2022/09/06 13:37:16;;;;;;;20.02;15.28;;;;;;;;;;1881810;74;21256;-85
2022/09/06 13:39:47;;;;;;;20.08;15.28;;;;;;;;;;1897363;74;21118;-85
2022/09/06 13:42:20;;;;;;;17.55;14.65;;;;;;;;;;1878633;74;21088;-85
2022/09/06 13:44:51;;;;;;;17.27;14.47;;;;;;;;;;1882679;74;21585;-86
2022/09/06 13:47:21;;;;;;;18.77;16.02;;;;;;;;;;1902109;74;21166;-85
2022/09/06 13:49:56;;;;;;;18.70;15.38;;;;;;;;;;1886256;74;21177;-86
2022/09/06 13:52:26;;;;;;;18.10;15.00;;;;;;;;;;1853621;76;21224;-86
2022/09/06 13:55:05;;;;;;;17.32;14.70;;;;;;;;;;1882052;75;21158;-85
2022/09/06 13:57:36;;;;;;;17.17;14.78;;;;;;;;;;1878159;75;21730;-86
2022/09/06 14:00:08;;;;;;;18.23;14.70;;;;;;;;;;1879094;75;21207;-86
2022/09/06 14:02:41;;;;;;;19.32;14.95;;;;;;;;;;1879301;74;21171;-85
2022/09/06 14:05:11;;;;;;;18.52;14.50;;;;;;;;;;1902738;74;21173;-86
2022/09/06 14:07:42;;;;;;;16.25;14.50;;;;;;;;;;1884200;74;21218;-86
2022/09/06 14:10:14;;;;;;;18.07;15.60;;;;;;;;;;1884463;74;21074;-87
2022/09/06 14:22:35;;;;;;;17.75;14.30;;;;;;;;;;1860020;75;21176;-87
2022/09/06 14:25:06;;;;;;;16.75;14.70;;;;;;;;;;1861181;75;21157;-86
2022/09/06 14:27:57;;;;;;;20.23;15.03;;;;;;;;;;1898087;74;21153;-85
2022/09/06 14:30:34;;;;;;;18.77;15.90;;;;;;;;;;1894106;74;21169;-86
2022/09/06 14:33:06;;;;;;;20.73;16.63;;;;;;;;;;1897371;74;21179;-86
2022/09/06 14:35:36;;;;;;;18.73;16.30;;;;;;;;;;1894729;74;21130;-86
2022/09/06 14:38:08;;;;;;;22.25;16.70;;;;;;;;;;1889475;74;21172;-87
2022/09/06 14:40:45;;;;;;;19.62;17.07;;;;;;;;;;1891108;74;21157;-86
2022/09/06 14:43:14;;;;;;;23.65;17.73;;;;;;;;;;1880131;74;21098;-86
2022/09/06 14:45:45;;;;;;;23.25;17.85;;;;;;;;;;1860592;75;21135;-85
2022/09/06 14:48:30;;;;;;;;;;;;;;;;;;;;;
2022/09/06 14:51:03;;;;;;;23.02;17.27;;;;;;;;;;1812724;78;20151;-87
2022/09/06 14:53:39;;;;;;;23.38;16.60;;;;;;;;;;1876087;75;21054;-87
2022/09/06 14:56:07;;;;;;;22.70;17.37;;;;;;;;;;1883778;74;21176;-86
2022/09/06 14:58:40;;;;;;;24.12;17.15;;;;;;;;;;1811632;78;21218;-87
2022/09/06 15:01:12;;;;;;;22.30;17.35;;;;;;;;;;1887053;75;21068;-86
2022/09/06 15:03:45;;;;;;;20.45;17.15;;;;;;;;;;1884690;74;21151;-87
2022/09/06 15:06:18;;;;;;;20.02;16.95;;;;;;;;;;1880560;74;21116;-87
2022/09/06 15:08:57;;;;;;;22.10;17.82;;;;;;;;;;1842141;77;21151;-87